createdAt,value
2016-10-05T00:01:01.804Z,1007.61
2016-10-05T00:02:11.783Z,1007.64
2016-10-05T00:03:21.792Z,1007.6
2016-10-05T00:04:32.075Z,1007.6
2016-10-05T00:05:42.068Z,1007.61
2016-10-05T00:06:52.353Z,1007.55
2016-10-05T00:08:02.343Z,1007.56
2016-10-05T00:09:12.636Z,1007.54
2016-10-05T00:10:22.915Z,1007.51
2016-10-05T00:11:32.906Z,1007.53
2016-10-05T00:12:42.872Z,1007.49
2016-10-05T00:13:53.158Z,1007.43
2016-10-05T00:15:02.820Z,1007.43
2016-10-05T00:16:12.793Z,1007.38
2016-10-05T00:17:22.774Z,1007.34
2016-10-05T00:18:32.764Z,1007.39
2016-10-05T00:19:43.063Z,1007.39
2016-10-05T00:20:53.338Z,1007.4
2016-10-05T00:22:03.625Z,1007.38
2016-10-05T00:23:13.922Z,1007.36
2016-10-05T00:24:24.209Z,1007.38
2016-10-05T00:25:33.865Z,1007.3
2016-10-05T00:26:44.153Z,1007.36
2016-10-05T00:27:54.454Z,1007.36
2016-10-05T00:29:04.431Z,1007.4
2016-10-05T00:30:14.408Z,1007.31
2016-10-05T00:31:24.689Z,1007.26
2016-10-05T00:32:34.662Z,1007.31
2016-10-05T00:33:44.014Z,1007.31
2016-10-05T00:34:53.693Z,1007.31
2016-10-05T00:36:04.016Z,1007.38
2016-10-05T00:37:14.002Z,1007.29
2016-10-05T00:38:24.289Z,1007.26
2016-10-05T00:39:34.281Z,1007.32
2016-10-05T00:40:44.281Z,1007.26
2016-10-05T00:41:54.257Z,1007.26
2016-10-05T00:43:04.231Z,1007.26
2016-10-05T00:44:14.209Z,1007.27
2016-10-05T00:45:24.539Z,1007.21
2016-10-05T00:46:34.527Z,1007.19
2016-10-05T00:47:44.809Z,1007.14
2016-10-05T00:48:55.103Z,1007.11
2016-10-05T00:50:05.401Z,1007.12
2016-10-05T00:51:15.063Z,1007.03
2016-10-05T00:52:25.043Z,1007.14
2016-10-05T00:53:35.022Z,1007.1
2016-10-05T00:54:45.332Z,1007.07
2016-10-05T00:55:55.294Z,1007.07
2016-10-05T00:57:05.271Z,1007.04
2016-10-05T00:58:15.548Z,1007.01
2016-10-05T00:59:25.825Z,1007.02
2016-10-05T01:00:35.810Z,1007.05
2016-10-05T01:01:45.476Z,1007.02
2016-10-05T01:02:55.459Z,1006.97
2016-10-05T01:04:04.829Z,1006.87
2016-10-05T01:05:15.118Z,1007.02
2016-10-05T01:06:25.109Z,1007.02
2016-10-05T01:07:35.102Z,1006.96
2016-10-05T01:08:45.088Z,1007.08
2016-10-05T01:09:55.061Z,1007.08
2016-10-05T01:11:05.371Z,1007.01
2016-10-05T01:12:15.347Z,1006.99
2016-10-05T01:13:25.621Z,1006.99
2016-10-05T01:14:35.904Z,1006.94
2016-10-05T01:15:46.193Z,1006.94
2016-10-05T01:16:56.171Z,1007.01
2016-10-05T01:18:06.151Z,1006.99
2016-10-05T01:19:16.119Z,1006.97
2016-10-05T01:20:26.421Z,1006.97
2016-10-05T01:21:36.692Z,1006.93
2016-10-05T01:22:46.978Z,1006.92
2016-10-05T01:23:56.345Z,1006.91
2016-10-05T01:25:06.016Z,1006.85
2016-10-05T01:26:15.994Z,1006.9
2016-10-05T01:27:25.966Z,1006.87
2016-10-05T01:28:35.930Z,1006.9
2016-10-05T01:29:45.584Z,1006.92
2016-10-05T01:30:55.577Z,1006.96
2016-10-05T01:32:05.552Z,1006.9
2016-10-05T01:33:15.830Z,1006.89
2016-10-05T01:34:26.106Z,1006.89
2016-10-05T01:35:36.393Z,1006.94
2016-10-05T01:36:46.373Z,1006.9
2016-10-05T01:37:56.345Z,1006.89
2016-10-05T01:39:06.324Z,1006.91
2016-10-05T01:40:16.309Z,1006.91
2016-10-05T01:41:26.596Z,1006.94
2016-10-05T01:42:36.868Z,1006.95
2016-10-05T01:43:47.150Z,1007.01
2016-10-05T01:44:57.434Z,1007
2016-10-05T01:46:07.099Z,1007.02
2016-10-05T01:47:16.774Z,1006.99
2016-10-05T01:48:26.767Z,1007.03
2016-10-05T01:49:37.052Z,1007.01
2016-10-05T01:50:46.409Z,1007
2016-10-05T01:51:56.398Z,1007.03
2016-10-05T01:53:06.387Z,1007.02
2016-10-05T01:54:16.055Z,1007.04
2016-10-05T01:55:26.341Z,1007.02
2016-10-05T01:56:36.620Z,1007.05
2016-10-05T01:57:46.602Z,1007.09
2016-10-05T01:58:56.573Z,1007.08
2016-10-05T02:00:06.578Z,1007.1
2016-10-05T02:01:16.556Z,1007.09
2016-10-05T02:02:26.842Z,1007.12
2016-10-05T02:03:36.806Z,1007.17
2016-10-05T02:04:47.102Z,1007.13
2016-10-05T02:05:57.401Z,1007.1
2016-10-05T02:07:07.692Z,1007.07
2016-10-05T02:08:17.681Z,1007.15
2016-10-05T02:09:27.957Z,1007.18
2016-10-05T02:10:38.266Z,1007.22
2016-10-05T02:11:48.241Z,1007.16
2016-10-05T02:12:58.543Z,1007.19
2016-10-05T02:14:08.839Z,1007.23
2016-10-05T02:15:18.821Z,1007.16
2016-10-05T02:16:29.103Z,1007.23
2016-10-05T02:17:39.105Z,1007.23
2016-10-05T02:18:49.384Z,1007.18
2016-10-05T02:19:59.372Z,1007.25
2016-10-05T02:21:09.039Z,1007.24
2016-10-05T02:22:19.327Z,1007.22
2016-10-05T02:23:29.307Z,1007.22
2016-10-05T02:24:39.597Z,1007.25
2016-10-05T02:25:49.568Z,1007.21
2016-10-05T02:26:59.262Z,1007.18
2016-10-05T02:28:09.563Z,1007.16
2016-10-05T02:29:19.841Z,1007.17
2016-10-05T02:30:30.123Z,1007.2
2016-10-05T02:31:40.111Z,1007.18
2016-10-05T02:32:50.433Z,1007.24
2016-10-05T02:34:00.400Z,1007.17
2016-10-05T02:35:10.691Z,1007.11
2016-10-05T02:36:20.976Z,1007.19
2016-10-05T02:37:31.258Z,1007.18
2016-10-05T02:38:40.927Z,1007.19
2016-10-05T02:39:51.230Z,1007.24
2016-10-05T02:41:01.519Z,1007.22
2016-10-05T02:42:11.197Z,1007.23
2016-10-05T02:43:21.182Z,1007.23
2016-10-05T02:44:31.149Z,1007.22
2016-10-05T02:45:41.125Z,1007.27
2016-10-05T02:46:51.412Z,1007.26
2016-10-05T02:48:01.394Z,1007.31
2016-10-05T02:49:10.756Z,1007.28
2016-10-05T02:50:21.039Z,1007.3
2016-10-05T02:51:31.008Z,1007.29
2016-10-05T02:52:41.006Z,1007.41
2016-10-05T02:53:50.988Z,1007.33
2016-10-05T02:55:00.980Z,1007.3
2016-10-05T02:56:10.959Z,1007.35
2016-10-05T02:57:20.941Z,1007.34
2016-10-05T02:58:31.220Z,1007.38
2016-10-05T02:59:40.875Z,1007.34
2016-10-05T03:31:59.512Z,1007.47
2016-10-05T03:33:09.465Z,1007.49
2016-10-05T03:34:19.737Z,1007.52
2016-10-05T03:35:29.708Z,1007.52
2016-10-05T03:36:39.995Z,1007.47
2016-10-05T03:37:50.305Z,1007.46
2016-10-05T03:38:59.968Z,1007.49
2016-10-05T03:40:10.270Z,1007.48
2016-10-05T03:41:20.546Z,1007.49
2016-10-05T03:42:30.515Z,1007.49
2016-10-05T03:43:40.781Z,1007.51
2016-10-05T03:44:51.061Z,1007.47
2016-10-05T03:46:01.371Z,1007.52
2016-10-05T03:47:11.345Z,1007.51
2016-10-05T03:48:21.636Z,1007.56
2016-10-05T03:49:31.912Z,1007.52
2016-10-05T03:50:42.190Z,1007.51
2016-10-05T03:51:52.475Z,1007.53
2016-10-05T03:53:02.456Z,1007.49
2016-10-05T03:54:12.449Z,1007.49
2016-10-05T03:55:22.421Z,1007.48
2016-10-05T03:56:32.700Z,1007.5
2016-10-05T03:57:42.990Z,1007.57
2016-10-05T03:58:52.960Z,1007.51
2016-10-05T04:00:03.240Z,1007.58
2016-10-05T04:01:13.545Z,1007.44
2016-10-05T04:02:23.534Z,1007.43
2016-10-05T04:03:33.808Z,1007.52
2016-10-05T04:04:43.783Z,1007.56
2016-10-05T04:05:53.760Z,1007.61
2016-10-05T04:07:03.415Z,1007.55
2016-10-05T04:08:13.390Z,1007.58
2016-10-05T04:09:23.671Z,1007.57
2016-10-05T04:10:33.643Z,1007.58
2016-10-05T04:11:43.314Z,1007.58
2016-10-05T04:12:53.587Z,1007.54
2016-10-05T04:14:03.603Z,1007.66
2016-10-05T04:15:13.881Z,1007.6
2016-10-05T04:16:23.869Z,1007.55
2016-10-05T04:17:34.173Z,1007.58
2016-10-05T04:18:44.445Z,1007.52
2016-10-05T04:19:54.737Z,1007.52
2016-10-05T04:21:05.014Z,1007.56
2016-10-05T04:22:15.297Z,1007.53
2016-10-05T04:23:25.264Z,1007.53
2016-10-05T04:24:35.263Z,1007.54
2016-10-05T04:25:45.549Z,1007.52
2016-10-05T04:26:55.541Z,1007.52
2016-10-05T04:28:05.497Z,1007.53
2016-10-05T04:29:15.780Z,1007.44
2016-10-05T04:30:25.763Z,1007.5
2016-10-05T04:31:36.049Z,1007.5
2016-10-05T04:32:46.014Z,1007.47
2016-10-05T04:33:55.691Z,1007.51
2016-10-05T04:35:05.659Z,1007.46
2016-10-05T04:36:15.979Z,1007.52
2016-10-05T04:37:26.270Z,1007.46
2016-10-05T04:38:36.230Z,1007.47
2016-10-05T04:39:46.218Z,1007.49
2016-10-05T04:40:56.510Z,1007.42
2016-10-05T04:42:05.867Z,1007.44
2016-10-05T04:43:16.153Z,1007.47
2016-10-05T04:44:26.440Z,1007.48
2016-10-05T04:45:36.439Z,1007.46
2016-10-05T04:46:46.719Z,1007.49
2016-10-05T04:47:56.690Z,1007.46
2016-10-05T04:49:06.655Z,1007.46
2016-10-05T04:50:16.943Z,1007.45
2016-10-05T04:51:27.232Z,1007.45
2016-10-05T04:52:37.211Z,1007.41
2016-10-05T04:53:47.502Z,1007.42
2016-10-05T04:54:57.795Z,1007.44
2016-10-05T04:56:07.456Z,1007.37
2016-10-05T04:57:17.738Z,1007.39
2016-10-05T04:58:27.709Z,1007.38
2016-10-05T04:59:37.988Z,1007.4
2016-10-05T05:00:48.287Z,1007.4
2016-10-05T05:01:58.574Z,1007.36
2016-10-05T05:03:08.566Z,1007.37
2016-10-05T05:04:18.844Z,1007.38
2016-10-05T05:05:28.825Z,1007.4
2016-10-05T05:06:39.103Z,1007.33
2016-10-05T05:07:49.383Z,1007.28
2016-10-05T05:08:59.380Z,1007.35
2016-10-05T05:10:09.351Z,1007.3
2016-10-05T05:11:19.316Z,1007.3
2016-10-05T05:12:29.599Z,1007.31
2016-10-05T05:13:39.931Z,1007.27
2016-10-05T05:14:50.220Z,1007.21
2016-10-05T05:16:00.181Z,1007.28
2016-10-05T05:17:10.465Z,1007.24
2016-10-05T05:18:20.911Z,1007.23
2016-10-05T05:19:31.210Z,1007.32
2016-10-05T05:20:41.492Z,1007.24
2016-10-05T05:21:51.773Z,1007.22
2016-10-05T05:23:02.063Z,1007.21
2016-10-05T05:24:12.365Z,1007.19
2016-10-05T05:25:22.642Z,1007.22
2016-10-05T05:26:32.933Z,1007.19
2016-10-05T05:27:43.241Z,1007.2
2016-10-05T05:28:52.908Z,1007.2
2016-10-05T05:30:03.209Z,1007.16
2016-10-05T05:31:13.496Z,1007.23
2016-10-05T05:32:23.158Z,1007.16
2016-10-05T05:33:33.133Z,1007.15
2016-10-05T05:34:43.411Z,1007.21
2016-10-05T05:35:53.389Z,1007.2
2016-10-05T05:37:03.408Z,1007.18
2016-10-05T05:38:13.072Z,1007.2
2016-10-05T05:39:23.072Z,1007.22
2016-10-05T05:40:33.063Z,1007.19
2016-10-05T05:41:43.337Z,1007.21
2016-10-05T05:42:53.628Z,1007.18
2016-10-05T05:44:03.934Z,1007.16
2016-10-05T05:45:13.913Z,1007.12
2016-10-05T05:46:24.193Z,1007.04
2016-10-05T05:47:34.476Z,1007.15
2016-10-05T05:48:44.758Z,1007.12
2016-10-05T05:49:54.731Z,1007.16
2016-10-05T05:51:05.016Z,1007.26
2016-10-05T05:52:15.302Z,1007.2
2016-10-05T05:53:25.586Z,1007.19
2016-10-05T05:54:35.553Z,1007.22
2016-10-05T05:55:45.542Z,1007.11
2016-10-05T05:56:55.828Z,1007.04
2016-10-05T05:58:06.099Z,1007.14
2016-10-05T05:59:15.762Z,1007.12
2016-10-05T06:00:25.468Z,1007.17
2016-10-05T06:01:35.765Z,1007.04
2016-10-05T06:02:45.731Z,1007.13
2016-10-05T06:03:55.085Z,1007.14
2016-10-05T06:05:05.041Z,1007.12
2016-10-05T06:06:14.713Z,1007.21
2016-10-05T06:07:24.382Z,1007.13
2016-10-05T06:08:34.366Z,1007.09
2016-10-05T06:09:44.332Z,1007.07
2016-10-05T06:10:54.619Z,1007.14
2016-10-05T06:12:04.592Z,1007.14
2016-10-05T06:13:14.877Z,1007.17
2016-10-05T06:14:24.853Z,1007.13
2016-10-05T06:15:35.142Z,1007.14
2016-10-05T06:16:45.408Z,1007.1
2016-10-05T06:17:55.695Z,1007.1
2016-10-05T06:19:05.976Z,1007.07
2016-10-05T06:20:16.273Z,1006.99
2016-10-05T06:21:25.339Z,1006.98
2016-10-05T06:22:35.621Z,1006.99
2016-10-05T06:23:45.897Z,1006.97
2016-10-05T06:24:56.194Z,1006.92
2016-10-05T06:26:06.485Z,1007.02
2016-10-05T06:27:16.762Z,1006.98
2016-10-05T06:28:27.095Z,1006.98
2016-10-05T06:29:36.761Z,1006.92
2016-10-05T06:30:47.029Z,1006.86
2016-10-05T06:31:57.301Z,1006.92
2016-10-05T06:33:07.581Z,1006.93
2016-10-05T06:34:17.874Z,1006.86
2016-10-05T06:35:27.843Z,1006.83
2016-10-05T06:36:37.832Z,1006.8
2016-10-05T06:37:47.520Z,1006.73
2016-10-05T06:38:57.821Z,1006.71
2016-10-05T06:40:08.110Z,1006.72
2016-10-05T06:41:18.396Z,1006.75
2016-10-05T06:42:28.077Z,1006.7
2016-10-05T06:43:38.357Z,1006.71
2016-10-05T06:44:47.713Z,1006.62
2016-10-05T06:45:57.701Z,1006.67
2016-10-05T06:47:07.374Z,1006.67
2016-10-05T06:48:17.646Z,1006.69
2016-10-05T06:49:27.625Z,1006.62
2016-10-05T06:50:37.603Z,1006.67
2016-10-05T06:51:47.898Z,1006.6
2016-10-05T06:52:57.253Z,1006.54
2016-10-05T06:54:07.231Z,1006.59
2016-10-05T06:55:17.204Z,1006.61
2016-10-05T06:56:27.201Z,1006.6
2016-10-05T06:57:37.489Z,1006.59
2016-10-05T06:58:47.775Z,1006.64
2016-10-05T06:59:58.080Z,1006.63
2016-10-05T07:01:08.068Z,1006.55
2016-10-05T07:02:17.733Z,1006.58
2016-10-05T07:03:28.051Z,1006.52
2016-10-05T07:04:38.024Z,1006.61
2016-10-05T07:05:48.009Z,1006.6
2016-10-05T07:06:58.324Z,1006.5
2016-10-05T07:08:08.298Z,1006.46
2016-10-05T07:09:17.960Z,1006.48
2016-10-05T07:10:27.937Z,1006.5
2016-10-05T07:11:37.622Z,1006.49
2016-10-05T07:12:47.600Z,1006.45
2016-10-05T07:13:57.284Z,1006.51
2016-10-05T07:15:07.263Z,1006.42
2016-10-05T07:16:17.547Z,1006.34
2016-10-05T07:17:27.522Z,1006.4
2016-10-05T07:18:37.196Z,1006.46
2016-10-05T07:19:47.482Z,1006.49
2016-10-05T07:20:57.783Z,1006.47
2016-10-05T07:22:08.071Z,1006.37
2016-10-05T07:23:18.381Z,1006.37
2016-10-05T07:24:28.055Z,1006.39
2016-10-05T07:25:38.058Z,1006.34
2016-10-05T07:26:48.345Z,1006.4
2016-10-05T07:27:58.643Z,1006.32
2016-10-05T07:29:08.610Z,1006.4
2016-10-05T07:30:18.894Z,1006.41
2016-10-05T07:31:28.699Z,1006.47
2016-10-05T07:32:38.671Z,1006.43
2016-10-05T07:33:48.336Z,1006.4
2016-10-05T07:34:58.324Z,1006.31
2016-10-05T07:36:08.007Z,1006.3
2016-10-05T07:37:17.986Z,1006.32
2016-10-05T07:38:28.271Z,1006.2
2016-10-05T07:39:38.245Z,1006.28
2016-10-05T07:40:48.521Z,1006.36
2016-10-05T07:41:58.519Z,1006.23
2016-10-05T07:43:08.518Z,1006.25
2016-10-05T07:44:18.798Z,1006.21
2016-10-05T07:45:29.087Z,1006.29
2016-10-05T07:46:39.381Z,1006.22
2016-10-05T07:47:49.367Z,1006.28
2016-10-05T07:48:59.645Z,1006.2
2016-10-05T07:50:09.316Z,1006.24
2016-10-05T07:51:19.006Z,1006.3
2016-10-05T07:52:28.989Z,1006.3
2016-10-05T07:53:38.662Z,1006.28
2016-10-05T07:54:48.946Z,1006.13
2016-10-05T07:55:59.240Z,1006.12
2016-10-05T07:57:08.908Z,1006.13
2016-10-05T07:58:19.202Z,1006.12
2016-10-05T07:59:29.165Z,1006.03
2016-10-05T08:00:38.528Z,1006.03
2016-10-05T08:01:48.198Z,1006.08
2016-10-05T08:02:57.871Z,1006.09
2016-10-05T08:04:07.857Z,1006.15
2016-10-05T08:05:18.154Z,1006.09
2016-10-05T08:06:28.146Z,1006.16
2016-10-05T08:07:37.799Z,1006.12
2016-10-05T08:08:48.084Z,1006.08
2016-10-05T08:09:58.372Z,1006.1
2016-10-05T08:11:08.352Z,1006.03
2016-10-05T08:12:18.654Z,1006.06
2016-10-05T08:13:28.946Z,1006.03
2016-10-05T08:14:39.226Z,1006.05
2016-10-05T08:15:48.889Z,1005.98
2016-10-05T08:16:59.181Z,1005.95
2016-10-05T08:18:09.161Z,1006
2016-10-05T08:19:19.445Z,1006.19
2016-10-05T08:20:29.411Z,1006.09
2016-10-05T08:21:38.769Z,1005.99
2016-10-05T08:22:48.754Z,1006.03
2016-10-05T08:23:58.441Z,1005.88
2016-10-05T08:25:08.664Z,1005.93
2016-10-05T08:26:18.657Z,1005.92
2016-10-05T08:27:28.950Z,1005.89
2016-10-05T08:28:38.622Z,1005.81
2016-10-05T08:29:48.915Z,1005.85
2016-10-05T08:30:59.251Z,1005.87
2016-10-05T08:32:09.541Z,1006.01
2016-10-05T08:33:19.885Z,1005.93
2016-10-05T08:34:29.900Z,1005.9
2016-10-05T08:35:42.142Z,1005.99
2016-10-05T08:36:52.164Z,1005.91
2016-10-05T08:38:02.516Z,1005.92
2016-10-05T08:39:12.854Z,1005.97
2016-10-05T08:40:22.583Z,1005.95
2016-10-05T08:41:32.915Z,1005.96
2016-10-05T08:42:42.640Z,1005.98
2016-10-05T08:43:52.972Z,1005.85
2016-10-05T08:45:03.325Z,1005.85
2016-10-05T08:46:13.365Z,1005.78
2016-10-05T08:47:23.730Z,1005.89
2016-10-05T08:48:34.061Z,1005.8
2016-10-05T08:49:43.762Z,1005.86
2016-10-05T08:50:54.131Z,1005.78
2016-10-05T08:52:04.491Z,1005.73
2016-10-05T08:53:14.818Z,1005.69
2016-10-05T08:54:24.786Z,1005.79
2016-10-05T08:55:35.127Z,1005.77
2016-10-05T08:56:45.664Z,1005.76
2016-10-05T08:57:55.380Z,1005.69
2016-10-05T08:59:05.764Z,1005.84
2016-10-05T09:00:16.304Z,1005.68
2016-10-05T09:01:26.753Z,1005.6
2016-10-05T09:02:37.113Z,1005.65
2016-10-05T09:03:47.137Z,1005.56
2016-10-05T09:04:57.409Z,1005.5
2016-10-05T09:06:07.778Z,1005.62
2016-10-05T09:07:18.206Z,1005.7
2016-10-05T09:08:28.607Z,1005.6
2016-10-05T09:09:38.343Z,1005.62
2016-10-05T09:10:48.365Z,1005.66
2016-10-05T09:11:58.737Z,1005.56
2016-10-05T09:13:08.766Z,1005.51
2016-10-05T09:14:19.185Z,1005.47
2016-10-05T09:15:29.238Z,1005.52
2016-10-05T09:16:39.522Z,1005.55
2016-10-05T09:17:49.898Z,1005.66
2016-10-05T09:18:59.664Z,1005.59
2016-10-05T09:20:10.005Z,1005.56
2016-10-05T09:21:20.437Z,1005.51
2016-10-05T09:22:31.053Z,1005.51
2016-10-05T09:23:41.100Z,1005.61
2016-10-05T09:24:51.478Z,1005.55
2016-10-05T09:26:01.859Z,1005.52
2016-10-05T09:27:11.617Z,1005.53
2016-10-05T09:28:21.976Z,1005.57
2016-10-05T09:29:32.274Z,1005.57
2016-10-05T09:30:42.932Z,1005.52
2016-10-05T09:31:53.206Z,1005.44
2016-10-05T09:33:03.507Z,1005.46
2016-10-05T09:34:13.890Z,1005.51
2016-10-05T09:35:23.962Z,1005.51
2016-10-05T09:36:34.237Z,1005.47
2016-10-05T09:37:44.273Z,1005.47
2016-10-05T09:38:54.659Z,1005.47
2016-10-05T09:40:04.736Z,1005.56
2016-10-05T09:41:15.255Z,1005.4
2016-10-05T09:42:25.314Z,1005.47
2016-10-05T09:43:35.602Z,1005.39
2016-10-05T09:44:45.885Z,1005.34
2016-10-05T09:45:55.626Z,1005.28
2016-10-05T09:47:05.915Z,1005.25
2016-10-05T09:48:15.965Z,1005.18
2016-10-05T09:49:26.334Z,1005.18
2016-10-05T09:50:36.476Z,1005.11
2016-10-05T09:51:46.842Z,1005.15
2016-10-05T09:52:56.552Z,1005.18
2016-10-05T09:54:07.145Z,1005.15
2016-10-05T09:55:17.550Z,1005.29
2016-10-05T09:56:27.618Z,1005.12
2016-10-05T09:57:37.740Z,1005.16
2016-10-05T09:58:48.139Z,1005.31
2016-10-05T09:59:57.852Z,1005.21
2016-10-05T10:01:07.277Z,1005.15
2016-10-05T10:02:17.849Z,1005.17
2016-10-05T10:03:28.484Z,1005.31
2016-10-05T10:04:38.516Z,1005.24
2016-10-05T10:05:49.107Z,1005.16
2016-10-05T10:06:59.467Z,1005.29
2016-10-05T10:08:09.184Z,1005.21
2016-10-05T10:09:19.206Z,1005.29
2016-10-05T10:10:29.557Z,1005.34
2016-10-05T10:11:39.908Z,1005.19
2016-10-05T10:12:50.245Z,1005.1
2016-10-05T10:14:00.607Z,1005.17
2016-10-05T10:15:10.970Z,1005.21
2016-10-05T10:16:21.323Z,1005.12
2016-10-05T10:17:31.652Z,1005.1
2016-10-05T10:18:41.346Z,1005.09
2016-10-05T10:19:51.362Z,1005.15
2016-10-05T10:21:01.705Z,1005.09
2016-10-05T10:22:11.725Z,1005.13
2016-10-05T10:23:22.054Z,1005.14
2016-10-05T10:24:32.413Z,1005.13
2016-10-05T10:25:42.725Z,1005.07
2016-10-05T10:26:52.434Z,1005.08
2016-10-05T10:28:02.737Z,1005.16
2016-10-05T10:29:13.094Z,1005.1
2016-10-05T10:30:22.491Z,1005.12
2016-10-05T10:31:31.880Z,1005.14
2016-10-05T10:32:41.893Z,1005.18
2016-10-05T10:33:51.911Z,1005.22
2016-10-05T10:35:01.931Z,1005.15
2016-10-05T10:36:11.968Z,1005.19
2016-10-05T10:37:22.296Z,1005.11
2016-10-05T10:38:32.638Z,1005.01
2016-10-05T10:39:42.652Z,1005.01
2016-10-05T10:40:53.001Z,1004.96
2016-10-05T10:42:03.020Z,1005.07
2016-10-05T10:43:13.369Z,1004.88
2016-10-05T10:44:23.399Z,1004.91
2016-10-05T10:45:33.733Z,1004.91
2016-10-05T10:46:44.072Z,1004.86
2016-10-05T10:47:54.417Z,1004.86
2016-10-05T10:49:04.130Z,1004.75
2016-10-05T10:50:14.491Z,1004.88
2016-10-05T10:51:24.824Z,1004.84
2016-10-05T10:52:35.166Z,1004.83
2016-10-05T10:53:45.489Z,1004.86
2016-10-05T10:54:55.838Z,1004.84
2016-10-05T10:56:06.159Z,1004.66
2016-10-05T10:57:16.484Z,1004.74
2016-10-05T10:58:26.525Z,1004.67
2016-10-05T10:59:36.544Z,1004.79
2016-10-05T11:00:46.880Z,1004.71
2016-10-05T11:01:57.229Z,1004.81
2016-10-05T11:03:07.247Z,1004.76
2016-10-05T11:04:17.585Z,1004.71
2016-10-05T11:05:27.920Z,1004.8
2016-10-05T11:06:38.253Z,1004.76
2016-10-05T11:07:48.274Z,1004.85
2016-10-05T11:08:58.611Z,1004.68
2016-10-05T11:10:08.614Z,1004.67
2016-10-05T11:11:18.884Z,1004.58
2016-10-05T11:12:28.898Z,1004.57
2016-10-05T11:13:38.937Z,1004.64
2016-10-05T11:14:48.644Z,1004.5
2016-10-05T11:15:58.681Z,1004.33
2016-10-05T11:17:08.694Z,1004.43
2016-10-05T11:18:19.035Z,1004.5
2016-10-05T11:19:29.381Z,1004.38
2016-10-05T11:20:39.718Z,1004.3
2016-10-05T11:21:50.053Z,1004.36
2016-10-05T11:23:00.380Z,1004.37
2016-10-05T11:24:10.703Z,1004.5
2016-10-05T11:25:20.730Z,1004.32
2016-10-05T11:26:30.127Z,1004.41
2016-10-05T11:27:40.137Z,1004.43
2016-10-05T11:28:50.369Z,1004.36
2016-10-05T11:30:00.692Z,1004.4
2016-10-05T11:31:11.021Z,1004.42
2016-10-05T11:32:20.734Z,1004.39
2016-10-05T11:33:31.064Z,1004.4
2016-10-05T11:34:41.389Z,1004.36
2016-10-05T11:35:51.399Z,1004.28
2016-10-05T11:37:01.734Z,1004.38
2016-10-05T11:38:11.750Z,1004.29
2016-10-05T11:39:22.091Z,1004.31
2016-10-05T11:40:32.407Z,1004.42
2016-10-05T11:41:42.749Z,1004.23
2016-10-05T11:42:53.077Z,1004.22
2016-10-05T11:44:02.794Z,1004.14
2016-10-05T11:45:12.507Z,1004.08
2016-10-05T11:46:22.861Z,1004.29
2016-10-05T11:47:33.191Z,1004.17
2016-10-05T11:48:42.595Z,1004.23
2016-10-05T11:49:52.958Z,1004.17
2016-10-05T11:51:03.302Z,1004.11
2016-10-05T11:52:13.642Z,1004.12
2016-10-05T11:53:23.963Z,1004.21
2016-10-05T11:54:34.298Z,1004.09
2016-10-05T11:55:44.308Z,1004.15
2016-10-05T11:56:54.646Z,1004.05
2016-10-05T11:58:05.003Z,1004.04
2016-10-05T11:59:15.013Z,1004.17
2016-10-05T12:00:25.037Z,1004.09
2016-10-05T12:01:35.383Z,1004.01
2016-10-05T12:02:45.722Z,1004.04
2016-10-05T12:03:56.048Z,1004.02
2016-10-05T12:05:06.081Z,1003.98
2016-10-05T12:06:16.433Z,1003.91
2016-10-05T12:07:26.771Z,1004
2016-10-05T12:08:37.115Z,1003.88
2016-10-05T12:09:47.154Z,1003.86
2016-10-05T12:10:57.191Z,1003.82
2016-10-05T12:12:07.499Z,1003.86
2016-10-05T12:13:17.522Z,1003.8
2016-10-05T12:14:27.827Z,1003.78
2016-10-05T12:15:37.530Z,1003.76
2016-10-05T12:16:47.862Z,1003.73
2016-10-05T12:17:57.580Z,1003.77
2016-10-05T12:19:07.612Z,1003.72
2016-10-05T12:20:18.174Z,1003.77
2016-10-05T12:21:27.593Z,1003.72
2016-10-05T12:22:37.912Z,1003.68
2016-10-05T12:23:48.253Z,1003.71
2016-10-05T12:24:58.587Z,1003.65
2016-10-05T12:26:08.930Z,1003.62
2016-10-05T12:27:18.343Z,1003.63
2016-10-05T12:28:28.370Z,1003.58
2016-10-05T12:29:38.399Z,1003.6
2016-10-05T12:30:48.422Z,1003.58
2016-10-05T12:31:58.771Z,1003.51
2016-10-05T12:33:09.115Z,1003.55
2016-10-05T12:34:19.176Z,1003.42
2016-10-05T12:35:28.890Z,1003.52
2016-10-05T12:36:39.238Z,1003.54
2016-10-05T12:37:48.944Z,1003.49
2016-10-05T12:38:59.306Z,1003.49
2016-10-05T12:40:09.652Z,1003.39
2016-10-05T12:41:19.650Z,1003.42
2016-10-05T12:42:29.911Z,1003.53
2016-10-05T12:43:39.948Z,1003.55
2016-10-05T12:44:49.977Z,1003.53
2016-10-05T12:46:00.348Z,1003.5
2016-10-05T12:47:10.381Z,1003.5
2016-10-05T12:48:20.719Z,1003.47
2016-10-05T12:49:30.751Z,1003.43
2016-10-05T12:50:41.088Z,1003.42
2016-10-05T12:51:51.367Z,1003.43
2016-10-05T12:53:01.723Z,1003.41
2016-10-05T12:54:12.100Z,1003.39
2016-10-05T12:55:22.123Z,1003.46
2016-10-05T12:56:32.469Z,1003.32
2016-10-05T12:57:42.785Z,1003.37
2016-10-05T12:58:53.131Z,1003.27
2016-10-05T13:00:03.468Z,1003.23
2016-10-05T13:01:13.495Z,1003.17
2016-10-05T13:02:23.833Z,1003.11
2016-10-05T13:03:34.170Z,1003.15
2016-10-05T13:04:44.201Z,1003.09
2016-10-05T13:05:53.897Z,1003.15
2016-10-05T13:07:04.212Z,1003.23
2016-10-05T13:08:14.541Z,1003.27
2016-10-05T13:09:24.568Z,1003.17
2016-10-05T13:10:34.908Z,1003.29
2016-10-05T13:11:44.304Z,1003.34
2016-10-05T13:12:54.315Z,1003.36
2016-10-05T13:14:04.651Z,1003.32
2016-10-05T13:15:14.700Z,1003.27
2016-10-05T13:16:24.736Z,1003.21
2016-10-05T13:17:35.077Z,1003.22
2016-10-05T13:18:45.426Z,1003.16
2016-10-05T13:19:55.746Z,1003.16
2016-10-05T13:21:05.803Z,1003.15
2016-10-05T13:22:15.513Z,1003.12
2016-10-05T13:23:25.537Z,1003.15
2016-10-05T13:24:35.586Z,1003.12
2016-10-05T13:25:45.284Z,1003.09
2016-10-05T13:26:55.298Z,1003.1
2016-10-05T13:28:05.635Z,1003.01
2016-10-05T13:29:15.364Z,1003.03
2016-10-05T13:30:25.693Z,1003.03
2016-10-05T13:31:35.706Z,1003.07
2016-10-05T13:32:46.051Z,1003.17
2016-10-05T13:33:55.747Z,1003.22
2016-10-05T13:35:05.765Z,1003.15
2016-10-05T13:36:15.759Z,1003.24
2016-10-05T13:37:26.079Z,1003.36
2016-10-05T13:38:36.386Z,1003.22
2016-10-05T13:39:46.741Z,1003.19
2016-10-05T13:40:56.751Z,1003.24
2016-10-05T13:42:07.071Z,1003.18
2016-10-05T13:43:17.410Z,1003.11
2016-10-05T13:44:27.724Z,1003.03
2016-10-05T13:45:38.053Z,1002.93
2016-10-05T13:46:47.739Z,1002.89
2016-10-05T13:47:57.765Z,1002.85
2016-10-05T13:49:08.076Z,1002.82
2016-10-05T13:50:18.093Z,1002.8
2016-10-05T13:51:28.428Z,1002.83
2016-10-05T13:52:38.754Z,1002.75
2016-10-05T13:53:48.749Z,1002.82
2016-10-05T13:54:58.454Z,1002.79
2016-10-05T13:56:08.477Z,1002.75
2016-10-05T13:57:18.849Z,1002.78
2016-10-05T13:58:29.169Z,1002.74
2016-10-05T13:59:39.167Z,1002.7
2016-10-05T14:00:49.193Z,1002.7
2016-10-05T14:01:59.525Z,1002.68
2016-10-05T14:03:09.852Z,1002.66
2016-10-05T14:04:20.186Z,1002.68
2016-10-05T14:05:29.889Z,1002.61
2016-10-05T14:06:40.198Z,1002.62
2016-10-05T14:07:50.197Z,1002.58
2016-10-05T14:09:00.510Z,1002.59
2016-10-05T14:10:10.840Z,1002.61
2016-10-05T14:11:20.850Z,1002.55
2016-10-05T14:12:31.083Z,1002.59
2016-10-05T14:13:41.385Z,1002.53
2016-10-05T14:14:51.391Z,1002.52
2016-10-05T14:16:01.405Z,1002.53
2016-10-05T14:17:11.425Z,1002.61
2016-10-05T14:18:21.435Z,1002.61
2016-10-05T14:19:31.793Z,1002.77
2016-10-05T14:20:42.123Z,1002.75
2016-10-05T14:21:52.132Z,1002.57
2016-10-05T14:23:02.137Z,1002.65
2016-10-05T14:24:12.455Z,1002.88
2016-10-05T14:25:22.795Z,1002.87
2016-10-05T14:26:32.790Z,1002.8
2016-10-05T14:27:42.821Z,1002.76
2016-10-05T14:28:53.152Z,1002.65
2016-10-05T14:30:02.849Z,1002.64
2016-10-05T14:31:12.546Z,1002.61
2016-10-05T14:32:22.579Z,1002.66
2016-10-05T14:33:32.565Z,1002.64
2016-10-05T14:34:42.288Z,1002.68
2016-10-05T14:35:52.634Z,1002.7
2016-10-05T14:37:02.960Z,1002.64
2016-10-05T14:38:13.005Z,1002.68
2016-10-05T14:39:23.027Z,1002.63
2016-10-05T14:40:33.363Z,1002.65
2016-10-05T14:41:43.689Z,1002.72
2016-10-05T14:42:53.720Z,1002.67